Time;durP1;ratioP1;P1;durP2;ratioP2;P2;SDS_P1;SDS_P2;PMS_P1;PMS_P2;Temp;Humidity;BMP_temperature;BMP_pressure;BME280_temperature;BME280_humidity;BME280_pressure;Samples;Min_cycle;Max_cycle;Signal;HPM_P1;HPM_P2
2023/04/26 00:01:56;;;;;;;7.32;2.88;;;5.80;99.90;;;;;;5052724;28;20020;-47
2023/04/26 00:04:22;;;;;;;8.50;2.47;;;5.70;99.90;;;;;;5072417;28;20032;-48
2023/04/26 00:06:48;;;;;;;6.43;2.70;;;5.70;99.90;;;;;;5071356;28;20029;-53
2023/04/26 00:09:14;;;;;;;11.40;2.75;;;5.60;99.90;;;;;;5072247;28;20467;-47
2023/04/26 00:11:39;;;;;;;14.25;4.05;;;5.60;99.90;;;;;;5071948;28;20093;-50
2023/04/26 00:14:05;;;;;;;9.57;2.60;;;5.60;99.90;;;;;;5072271;28;20032;-44
2023/04/26 00:16:31;;;;;;;7.13;2.70;;;5.60;99.90;;;;;;5072056;28;20095;-48
2023/04/26 00:18:56;;;;;;;12.00;3.25;;;5.60;99.90;;;;;;5072212;28;20028;-44
2023/04/26 00:21:22;;;;;;;8.98;2.63;;;5.60;99.90;;;;;;5072638;28;20027;-44
2023/04/26 00:23:47;;;;;;;7.55;2.55;;;5.70;99.90;;;;;;5071870;28;20031;-44
2023/04/26 00:26:13;;;;;;;6.25;2.85;;;5.70;99.90;;;;;;5071895;28;20035;-45
2023/04/26 00:28:39;;;;;;;7.28;2.50;;;5.70;99.90;;;;;;5068482;28;20082;-47
2023/04/26 00:31:04;;;;;;;10.23;2.78;;;5.60;99.90;;;;;;5071679;28;20479;-47
2023/04/26 00:33:30;;;;;;;9.48;2.90;;;5.50;99.90;;;;;;5071866;28;20047;-45
2023/04/26 00:35:55;;;;;;;7.30;3.03;;;5.50;99.90;;;;;;5071601;28;20112;-49
2023/04/26 00:38:21;;;;;;;6.57;2.60;;;5.50;99.90;;;;;;5071693;28;20016;-51
2023/04/26 00:40:46;;;;;;;6.63;2.50;;;5.60;99.90;;;;;;5071661;28;20074;-46
2023/04/26 00:43:12;;;;;;;12.40;3.13;;;5.60;99.90;;;;;;5071553;28;20400;-51
2023/04/26 00:45:38;;;;;;;6.88;2.67;;;5.70;99.90;;;;;;5071769;28;20030;-49
2023/04/26 00:48:04;;;;;;;13.20;2.90;;;5.70;99.90;;;;;;5071565;28;20102;-51
2023/04/26 00:50:31;;;;;;;8.35;2.97;;;5.70;99.90;;;;;;5071365;28;20051;-46
2023/04/26 00:52:57;;;;;;;8.35;2.20;;;5.80;99.90;;;;;;5071408;28;20021;-50
2023/04/26 00:55:25;;;;;;;11.57;2.45;;;5.80;99.90;;;;;;5071481;28;20021;-46
2023/04/26 00:57:51;;;;;;;5.63;2.13;;;5.80;99.90;;;;;;5059873;28;20037;-48
2023/04/26 01:00:17;;;;;;;7.93;2.15;;;5.80;99.90;;;;;;5056374;28;20153;-47
2023/04/26 01:02:43;;;;;;;6.90;2.58;;;5.80;99.90;;;;;;5071371;28;20063;-49
2023/04/26 01:05:09;;;;;;;5.20;2.35;;;5.80;99.90;;;;;;5071320;28;20021;-49
2023/04/26 01:07:37;;;;;;;12.50;2.67;;;5.80;99.90;;;;;;5071103;28;20025;-50
2023/04/26 01:10:04;;;;;;;6.95;2.33;;;5.90;99.90;;;;;;5071249;28;20029;-51
2023/04/26 01:12:30;;;;;;;6.00;2.28;;;5.90;99.90;;;;;;5071185;28;20071;-47
2023/04/26 01:14:56;;;;;;;11.40;3.00;;;5.80;99.90;;;;;;5071198;28;20024;-51
2023/04/26 01:17:23;;;;;;;8.80;2.53;;;5.90;99.90;;;;;;5063363;28;20059;-49
2023/04/26 01:19:49;;;;;;;7.60;2.40;;;5.80;99.90;;;;;;5068811;28;20017;-45
2023/04/26 01:22:15;;;;;;;9.63;2.55;;;5.90;99.90;;;;;;5070437;28;20430;-49
2023/04/26 01:24:46;;;;;;;10.25;2.53;;;5.80;99.90;;;;;;5070864;28;20502;-45
2023/04/26 01:27:11;;;;;;;11.98;2.80;;;5.80;99.90;;;;;;5064327;28;20468;-48
2023/04/26 01:29:37;;;;;;;6.50;3.00;;;5.80;99.90;;;;;;5069461;28;20100;-45
2023/04/26 01:32:03;;;;;;;9.38;2.72;;;5.80;99.90;;;;;;5070746;28;20044;-45
2023/04/26 01:34:29;;;;;;;9.00;2.55;;;5.70;99.90;;;;;;5070401;28;20411;-44
2023/04/26 01:36:55;;;;;;;7.57;2.38;;;5.70;99.90;;;;;;5070725;28;20058;-44
2023/04/26 01:39:21;;;;;;;6.53;2.50;;;5.70;99.90;;;;;;5070597;28;20048;-51
2023/04/26 01:41:46;;;;;;;8.05;2.45;;;5.70;99.90;;;;;;5070710;28;20031;-53
2023/04/26 01:44:12;;;;;;;7.15;2.55;;;5.70;99.90;;;;;;5070602;28;20462;-43
2023/04/26 01:46:38;;;;;;;6.22;2.38;;;5.70;99.90;;;;;;5070531;28;20502;-44
2023/04/26 01:49:04;;;;;;;8.35;2.28;;;5.70;99.90;;;;;;5070531;28;20029;-44
2023/04/26 01:51:29;;;;;;;8.48;2.55;;;5.70;99.90;;;;;;5070300;28;20153;-44
2023/04/26 01:53:55;;;;;;;11.20;2.60;;;5.70;99.90;;;;;;5070618;28;20110;-45
2023/04/26 01:56:23;;;;;;;6.95;2.40;;;5.70;99.90;;;;;;5070550;28;20032;-48
2023/04/26 01:58:48;;;;;;;5.15;2.22;;;5.60;99.90;;;;;;5057344;28;20017;-48
2023/04/26 02:01:14;;;;;;;9.25;2.10;;;5.60;99.90;;;;;;5066892;28;20033;-48
2023/04/26 02:03:39;;;;;;;12.05;2.67;;;5.70;99.90;;;;;;5068435;28;20020;-44
2023/04/26 02:06:06;;;;;;;6.97;2.60;;;5.70;99.90;;;;;;5068136;28;20618;-52
2023/04/26 02:08:31;;;;;;;8.00;2.75;;;5.80;99.90;;;;;;5056119;28;20130;-48
2023/04/26 02:10:57;;;;;;;6.47;2.67;;;5.80;99.90;;;;;;5043157;28;20136;-51
2023/04/26 02:13:23;;;;;;;5.00;2.60;;;5.80;99.90;;;;;;5055251;28;20048;-49
2023/04/26 02:15:50;;;;;;;8.15;2.65;;;5.80;99.90;;;;;;5070221;28;20048;-51
2023/04/26 02:18:16;;;;;;;9.32;2.53;;;5.80;99.90;;;;;;5062028;28;20100;-48
2023/04/26 02:20:43;;;;;;;7.88;2.58;;;5.80;99.90;;;;;;5070071;28;20491;-46
2023/04/26 02:23:10;;;;;;;8.23;2.78;;;5.80;99.90;;;;;;5061767;28;20383;-43
2023/04/26 02:25:36;;;;;;;7.07;2.60;;;5.90;99.90;;;;;;5070026;28;20040;-56
2023/04/26 02:28:02;;;;;;;15.70;4.47;;;5.90;99.90;;;;;;5070178;28;20479;-45
2023/04/26 02:30:29;;;;;;;7.88;2.30;;;5.90;99.90;;;;;;5072046;28;20020;-43
2023/04/26 02:32:55;;;;;;;14.77;3.00;;;5.90;99.90;;;;;;5055702;28;20119;-47
2023/04/26 02:35:21;;;;;;;7.60;2.28;;;6.00;99.90;;;;;;5074217;28;20060;-44
2023/04/26 02:37:47;;;;;;;8.60;2.65;;;6.00;99.90;;;;;;5074163;28;20052;-44
2023/04/26 02:40:17;;;;;;;7.68;2.72;;;6.00;99.90;;;;;;5074110;28;20466;-43
2023/04/26 02:42:43;;;;;;;9.38;2.78;;;6.00;99.90;;;;;;5073972;28;20016;-46
2023/04/26 02:45:09;;;;;;;9.40;2.90;;;6.10;99.90;;;;;;5073977;28;20042;-49
2023/04/26 02:47:38;;;;;;;10.88;2.25;;;6.10;99.90;;;;;;5055762;28;20035;-49
2023/04/26 02:50:08;;;;;;;9.63;2.40;;;6.20;99.90;;;;;;5073852;28;20100;-47
2023/04/26 02:52:34;;;;;;;9.73;2.58;;;6.20;99.90;;;;;;5060446;28;20060;-50
2023/04/26 02:55:01;;;;;;;10.38;3.28;;;6.20;99.90;;;;;;5073398;28;20016;-44
2023/04/26 02:57:26;;;;;;;7.40;2.63;;;6.20;99.90;;;;;;5073969;28;20031;-46
2023/04/26 02:59:52;;;;;;;7.18;2.72;;;6.20;99.90;;;;;;5073049;28;20012;-48
2023/04/26 03:02:18;;;;;;;8.52;2.72;;;6.20;99.90;;;;;;5073625;28;20036;-46
2023/04/26 03:04:43;;;;;;;9.77;2.70;;;6.30;99.90;;;;;;5073528;28;20399;-52
2023/04/26 03:07:09;;;;;;;5.90;2.63;;;6.20;99.90;;;;;;5055628;28;20382;-50
2023/04/26 03:09:37;;;;;;;6.45;2.38;;;6.30;99.90;;;;;;5073402;28;20066;-44
2023/04/26 03:12:04;;;;;;;7.60;2.70;;;6.30;99.90;;;;;;5073247;28;20067;-47
2023/04/26 03:14:30;;;;;;;7.88;2.30;;;6.30;99.90;;;;;;5073452;28;20013;-51
2023/04/26 03:16:56;;;;;;;7.22;2.30;;;6.40;99.90;;;;;;5073130;28;20032;-50
2023/04/26 03:19:21;;;;;;;5.47;2.30;;;6.40;99.90;;;;;;5073337;28;20016;-43
2023/04/26 03:21:47;;;;;;;7.05;2.17;;;6.40;99.90;;;;;;5068592;28;20039;-44
2023/04/26 03:24:12;;;;;;;5.35;2.10;;;6.40;99.90;;;;;;5073291;28;20028;-43
2023/04/26 03:26:38;;;;;;;8.70;2.53;;;6.50;99.90;;;;;;5073034;28;20031;-46
2023/04/26 03:29:04;;;;;;;7.80;2.17;;;6.50;99.90;;;;;;5072864;28;20032;-48
2023/04/26 03:31:30;;;;;;;4.30;2.00;;;6.50;99.90;;;;;;5055001;28;20032;-49
2023/04/26 03:33:55;;;;;;;7.05;2.22;;;6.50;99.90;;;;;;5072855;28;20055;-51
2023/04/26 03:36:21;;;;;;;5.55;2.15;;;6.50;99.90;;;;;;5073151;28;20082;-46
2023/04/26 03:38:47;;;;;;;6.55;2.10;;;6.50;99.90;;;;;;5073092;28;20093;-49
2023/04/26 03:41:12;;;;;;;5.05;2.03;;;6.50;99.90;;;;;;5071747;28;20177;-44
2023/04/26 03:43:38;;;;;;;7.20;2.30;;;6.60;99.90;;;;;;5072752;28;20508;-49
2023/04/26 03:46:04;;;;;;;4.07;2.17;;;6.60;99.90;;;;;;5072736;28;20020;-57
2023/04/26 03:48:30;;;;;;;4.75;2.00;;;6.60;99.90;;;;;;5072798;28;20032;-44
2023/04/26 03:50:55;;;;;;;9.20;2.40;;;6.60;99.90;;;;;;5072542;28;20028;-48
2023/04/26 03:53:21;;;;;;;9.90;2.55;;;6.60;99.90;;;;;;5054076;28;20032;-46
2023/04/26 03:55:47;;;;;;;6.43;2.28;;;6.60;99.90;;;;;;5057214;28;20070;-46
2023/04/26 03:58:12;;;;;;;6.35;2.30;;;6.60;99.90;;;;;;5072834;28;20032;-51
2023/04/26 04:00:41;;;;;;;10.13;2.45;;;6.70;99.90;;;;;;5072527;28;20627;-48
2023/04/26 04:03:07;;;;;;;5.82;1.83;;;6.70;99.90;;;;;;5072342;28;20036;-47
2023/04/26 04:05:34;;;;;;;6.05;2.25;;;6.70;99.90;;;;;;5072696;28;20094;-44
2023/04/26 04:07:59;;;;;;;5.35;1.90;;;6.70;99.90;;;;;;5054119;28;20024;-49
2023/04/26 04:10:25;;;;;;;7.85;2.15;;;6.70;99.90;;;;;;5072505;28;20100;-45
2023/04/26 04:12:52;;;;;;;10.00;2.10;;;6.70;99.90;;;;;;5071772;28;20117;-47
2023/04/26 04:15:19;;;;;;;4.40;1.55;;;6.60;99.90;;;;;;5072209;28;20016;-52
2023/04/26 04:17:45;;;;;;;7.38;2.50;;;6.60;99.90;;;;;;5072162;28;20531;-50
2023/04/26 04:20:11;;;;;;;5.80;2.47;;;6.60;99.90;;;;;;5072027;28;20063;-47
2023/04/26 04:22:38;;;;;;;8.23;2.08;;;6.60;99.90;;;;;;5068040;28;20498;-54
2023/04/26 04:25:06;;;;;;;5.35;1.73;;;6.50;99.90;;;;;;5054286;28;20046;-49
2023/04/26 04:27:31;;;;;;;3.75;1.83;;;6.50;99.90;;;;;;5071965;28;20058;-55
2023/04/26 04:29:57;;;;;;;6.68;2.28;;;6.50;99.90;;;;;;5071866;28;20068;-44
2023/04/26 04:32:23;;;;;;;6.57;2.17;;;6.60;99.90;;;;;;5071722;28;20033;-50
2023/04/26 04:34:50;;;;;;;4.90;2.13;;;6.60;99.90;;;;;;5072003;28;20392;-47
2023/04/26 04:37:17;;;;;;;5.60;2.47;;;6.60;99.90;;;;;;5071884;28;20024;-46
2023/04/26 04:39:42;;;;;;;5.93;2.35;;;6.60;99.90;;;;;;5049283;28;20016;-52
2023/04/26 04:42:09;;;;;;;7.22;2.22;;;6.60;99.90;;;;;;5055647;28;20040;-47
2023/04/26 04:44:35;;;;;;;7.82;2.30;;;6.60;99.90;;;;;;5051810;28;20021;-54
2023/04/26 04:47:01;;;;;;;5.00;2.20;;;6.60;99.90;;;;;;5051730;28;20037;-48
2023/04/26 04:49:27;;;;;;;6.70;2.03;;;6.70;99.90;;;;;;5051263;28;20025;-49
2023/04/26 04:51:53;;;;;;;9.50;2.95;;;6.70;99.90;;;;;;5050745;28;20474;-51
2023/04/26 04:54:19;;;;;;;10.75;1.95;;;6.70;99.90;;;;;;5051144;28;20529;-47
2023/04/26 04:56:45;;;;;;;5.50;2.20;;;6.60;99.90;;;;;;5035850;28;20383;-50
2023/04/26 04:59:11;;;;;;;6.95;2.10;;;6.70;99.90;;;;;;5051588;28;20475;-43
2023/04/26 05:01:37;;;;;;;5.72;2.20;;;6.60;99.90;;;;;;5051129;28;20407;-52
2023/04/26 05:04:03;;;;;;;4.88;1.98;;;6.60;99.90;;;;;;5051352;28;20095;-46
2023/04/26 05:06:31;;;;;;;5.75;2.00;;;6.60;99.90;;;;;;5051109;28;20033;-49
2023/04/26 05:08:56;;;;;;;4.97;2.25;;;6.70;99.90;;;;;;5051154;28;20056;-47
2023/04/26 05:11:22;;;;;;;6.53;2.65;;;6.70;99.90;;;;;;5022018;28;20523;-49
2023/04/26 05:13:48;;;;;;;5.97;2.15;;;6.70;99.90;;;;;;5050843;28;20043;-43
2023/04/26 05:16:14;;;;;;;10.77;2.17;;;6.70;99.90;;;;;;5050996;28;20037;-47
2023/04/26 05:18:40;;;;;;;5.97;2.10;;;6.80;99.90;;;;;;5050972;28;20020;-55
2023/04/26 05:21:06;;;;;;;5.13;2.00;;;6.80;99.90;;;;;;5051103;28;20128;-45
2023/04/26 05:23:33;;;;;;;9.38;2.28;;;6.80;99.90;;;;;;5050245;28;20051;-55
2023/04/26 05:26:06;;;;;;;5.82;2.13;;;6.90;99.90;;;;;;5055485;28;20044;-50
2023/04/26 05:28:32;;;;;;;7.35;1.98;;;6.90;99.90;;;;;;5071081;28;20021;-44
2023/04/26 05:30:58;;;;;;;6.03;1.90;;;6.90;99.90;;;;;;5070642;28;20111;-49
2023/04/26 05:33:24;;;;;;;5.72;1.90;;;7.00;99.90;;;;;;5070865;28;20036;-45
2023/04/26 05:35:52;;;;;;;4.45;1.77;;;7.00;99.90;;;;;;5070819;28;20028;-45
2023/04/26 05:38:18;;;;;;;7.05;2.03;;;7.00;99.90;;;;;;5052793;28;20394;-44
2023/04/26 05:40:44;;;;;;;9.88;2.63;;;7.00;99.90;;;;;;5070620;28;20477;-46
2023/04/26 05:43:09;;;;;;;4.57;2.08;;;7.10;99.90;;;;;;5052690;28;20490;-43
2023/04/26 05:45:35;;;;;;;4.43;1.98;;;7.20;99.90;;;;;;5070976;28;20017;-50
2023/04/26 05:48:01;;;;;;;5.80;1.85;;;7.20;99.90;;;;;;5070459;28;20047;-49
2023/04/26 05:50:26;;;;;;;9.15;2.03;;;7.20;99.90;;;;;;5070574;28;20032;-53
2023/04/26 05:52:52;;;;;;;7.88;1.77;;;7.30;99.90;;;;;;5057857;28;20115;-43
2023/04/26 05:55:19;;;;;;;7.97;2.33;;;7.40;99.90;;;;;;5070472;28;20039;-44
2023/04/26 05:57:44;;;;;;;5.10;1.98;;;7.40;99.90;;;;;;5070573;28;20029;-48
2023/04/26 06:00:11;;;;;;;7.13;1.63;;;7.50;99.90;;;;;;5070610;28;20035;-52
2023/04/26 06:02:36;;;;;;;8.10;2.00;;;7.50;99.90;;;;;;5070398;28;20024;-45
2023/04/26 06:05:03;;;;;;;6.43;1.73;;;7.60;99.90;;;;;;5051416;28;20024;-46
2023/04/26 06:07:30;;;;;;;9.07;2.00;;;7.60;99.90;;;;;;5070300;28;20395;-45
2023/04/26 06:09:55;;;;;;;6.35;1.80;;;7.70;99.90;;;;;;5070166;28;20541;-48
2023/04/26 06:12:21;;;;;;;5.57;2.05;;;7.90;99.90;;;;;;5070178;28;20040;-44
2023/04/26 06:14:47;;;;;;;5.25;2.10;;;8.00;99.90;;;;;;5070030;28;20054;-49
2023/04/26 06:17:13;;;;;;;6.30;1.92;;;8.10;99.90;;;;;;5062642;28;20029;-49
2023/04/26 06:19:38;;;;;;;5.20;2.22;;;8.20;99.90;;;;;;5050576;28;20376;-43
2023/04/26 06:22:04;;;;;;;5.68;1.92;;;8.30;99.90;;;;;;5049442;28;20029;-51
2023/04/26 06:24:29;;;;;;;5.68;1.90;;;8.40;99.90;;;;;;5050224;28;20033;-48
2023/04/26 06:26:55;;;;;;;5.55;2.20;;;8.20;99.90;;;;;;5062828;28;20358;-43
2023/04/26 06:29:21;;;;;;;7.05;2.28;;;8.20;99.90;;;;;;5070118;28;20024;-44
2023/04/26 06:31:46;;;;;;;6.13;2.10;;;8.30;99.90;;;;;;5070022;28;20047;-53
2023/04/26 06:34:12;;;;;;;6.80;2.10;;;8.20;99.90;;;;;;5070012;28;20127;-48
2023/04/26 06:36:38;;;;;;;8.10;2.08;;;8.10;99.90;;;;;;5070126;28;20017;-50
2023/04/26 06:39:03;;;;;;;6.05;1.90;;;8.10;99.90;;;;;;5069891;28;20068;-51
2023/04/26 06:41:30;;;;;;;5.13;1.88;;;8.10;99.90;;;;;;5070150;28;20050;-43
2023/04/26 06:43:55;;;;;;;5.30;2.00;;;8.10;99.90;;;;;;5052119;28;20020;-46
2023/04/26 06:46:21;;;;;;;11.15;2.13;;;8.20;99.90;;;;;;5063406;28;20082;-48
2023/04/26 06:48:46;;;;;;;4.32;1.88;;;8.20;99.90;;;;;;5052289;28;20029;-50
2023/04/26 06:51:12;;;;;;;4.88;2.05;;;8.20;99.90;;;;;;5049653;28;20383;-48
2023/04/26 06:53:38;;;;;;;7.80;2.10;;;8.40;99.90;;;;;;5049516;28;20021;-49
2023/04/26 06:56:04;;;;;;;4.70;1.85;;;8.40;99.90;;;;;;5049894;28;20457;-48
2023/04/26 06:58:30;;;;;;;7.75;1.85;;;8.50;99.90;;;;;;5049707;28;20018;-46
2023/04/26 07:00:55;;;;;;;6.95;1.92;;;8.50;99.90;;;;;;5048443;28;20025;-46
2023/04/26 07:03:21;;;;;;;6.95;2.05;;;8.50;99.90;;;;;;5049741;28;20502;-53
2023/04/26 07:05:47;;;;;;;4.85;2.00;;;8.50;99.90;;;;;;5049775;28;20055;-53
2023/04/26 07:08:13;;;;;;;6.45;1.90;;;8.50;99.90;;;;;;5049657;28;20021;-56
2023/04/26 07:10:40;;;;;;;4.97;1.70;;;8.60;99.90;;;;;;5049605;28;20055;-54
2023/04/26 07:13:06;;;;;;;5.47;1.98;;;8.80;99.90;;;;;;5049615;28;20146;-51
2023/04/26 07:15:32;;;;;;;4.63;1.75;;;8.70;99.90;;;;;;5049966;28;20024;-50
2023/04/26 07:17:57;;;;;;;8.45;2.45;;;8.70;99.90;;;;;;5053244;28;20040;-43
2023/04/26 07:20:23;;;;;;;6.97;2.10;;;8.80;99.90;;;;;;5053203;28;20105;-42
2023/04/26 07:22:50;;;;;;;7.07;2.22;;;8.90;99.90;;;;;;5052618;28;20032;-43
2023/04/26 07:25:16;;;;;;;5.03;1.58;;;8.80;99.90;;;;;;5053343;28;20029;-56
2023/04/26 07:27:41;;;;;;;6.65;2.10;;;8.90;99.90;;;;;;5072146;28;20101;-44
2023/04/26 07:30:09;;;;;;;10.25;2.08;;;8.90;99.90;;;;;;5073300;28;20059;-43
2023/04/26 07:32:35;;;;;;;8.77;2.17;;;8.90;99.90;;;;;;5072975;28;20118;-50
2023/04/26 07:35:03;;;;;;;4.78;1.85;;;8.90;99.90;;;;;;5072979;28;20021;-44
2023/04/26 07:37:29;;;;;;;4.32;1.65;;;9.10;99.90;;;;;;5073550;28;20361;-43
2023/04/26 07:39:54;;;;;;;5.90;1.73;;;9.20;99.90;;;;;;5065737;28;20547;-46
2023/04/26 07:42:20;;;;;;;6.97;1.92;;;9.20;99.90;;;;;;5062605;28;20100;-50
2023/04/26 07:44:48;;;;;;;7.43;1.75;;;9.20;99.90;;;;;;5053188;28;20430;-49
2023/04/26 07:47:13;;;;;;;3.58;1.65;;;9.00;99.90;;;;;;5052706;28;20017;-43
2023/04/26 07:49:39;;;;;;;7.13;1.70;;;9.10;99.90;;;;;;5052617;28;20078;-56
2023/04/26 07:52:05;;;;;;;7.13;1.58;;;9.20;99.90;;;;;;5051790;28;20076;-43
2023/04/26 07:54:30;;;;;;;5.47;1.80;;;9.30;99.90;;;;;;5052590;28;20049;-43
2023/04/26 07:56:56;;;;;;;2.78;1.42;;;9.30;99.90;;;;;;5052031;28;20090;-45
2023/04/26 07:59:22;;;;;;;7.13;1.70;;;9.40;99.90;;;;;;5047068;28;20040;-42
2023/04/26 08:01:48;;;;;;;5.57;1.70;;;9.40;99.90;;;;;;5051634;28;20029;-42
2023/04/26 08:04:14;;;;;;;5.55;1.50;;;9.40;99.90;;;;;;5052020;28;20025;-43
2023/04/26 08:06:43;;;;;;;3.35;1.17;;;9.50;99.90;;;;;;5052567;28;20066;-43
2023/04/26 08:09:10;;;;;;;6.68;1.42;;;9.50;99.90;;;;;;5052600;28;20040;-46
2023/04/26 08:11:35;;;;;;;8.85;1.70;;;9.50;99.90;;;;;;5051884;28;20044;-41
2023/04/26 08:14:01;;;;;;;2.05;1.27;;;9.50;99.90;;;;;;5051353;28;20032;-49
2023/04/26 08:16:27;;;;;;;4.88;1.35;;;9.50;99.90;;;;;;5052399;28;20028;-57
2023/04/26 08:18:54;;;;;;;5.00;1.27;;;9.50;99.90;;;;;;5051959;28;20033;-50
2023/04/26 08:21:19;;;;;;;7.00;1.30;;;9.60;99.90;;;;;;5034080;28;20082;-43
2023/04/26 08:23:45;;;;;;;5.07;1.40;;;9.50;99.90;;;;;;5051934;28;20037;-48
2023/04/26 08:26:11;;;;;;;4.60;1.52;;;9.50;99.90;;;;;;5057912;28;20040;-47
2023/04/26 08:28:37;;;;;;;6.25;1.52;;;9.60;99.90;;;;;;5046347;28;20479;-43
2023/04/26 08:31:03;;;;;;;6.70;2.05;;;9.60;99.90;;;;;;5048458;28;20044;-42
2023/04/26 08:33:29;;;;;;;5.18;1.63;;;9.50;99.90;;;;;;5043254;28;20056;-51
2023/04/26 08:35:54;;;;;;;5.82;1.40;;;9.50;99.90;;;;;;5051095;28;20055;-54
2023/04/26 08:38:21;;;;;;;5.82;1.58;;;9.50;99.90;;;;;;5039840;28;20395;-47
2023/04/26 08:40:47;;;;;;;5.35;1.60;;;9.70;99.10;;;;;;5050662;28;20025;-51
2023/04/26 08:43:14;;;;;;;5.78;1.95;;;9.60;99.70;;;;;;5039513;28;20083;-57
2023/04/26 08:45:43;;;;;;;4.68;1.75;;;9.70;98.60;;;;;;5051743;28;20040;-51
2023/04/26 08:48:14;;;;;;;5.60;1.85;;;9.70;98.80;;;;;;5038244;28;20115;-53
2023/04/26 08:50:44;;;;;;;4.95;1.60;;;9.90;99.60;;;;;;5051209;28;20047;-49
2023/04/26 08:53:12;;;;;;;;;;;10.20;99.00;;;;;;5047653;28;20082;-46
2023/04/26 08:55:38;;;;;;;5.60;1.73;;;10.30;97.40;;;;;;5041698;28;20346;-48
2023/04/26 08:58:06;;;;;;;5.15;1.83;;;10.50;98.10;;;;;;5050928;28;20085;-48
2023/04/26 09:00:32;;;;;;;3.42;1.50;;;10.70;98.40;;;;;;5051205;28;20051;-49
2023/04/26 09:02:57;;;;;;;4.95;1.55;;;10.70;96.30;;;;;;5051369;28;20029;-49
2023/04/26 09:05:25;;;;;;;4.80;1.73;;;10.50;95.30;;;;;;5051285;28;20029;-45
2023/04/26 09:08:04;;;;;;;4.15;1.70;;;10.30;95.20;;;;;;5051306;28;20032;-48
2023/04/26 09:10:31;;;;;;;6.95;1.83;;;10.30;94.80;;;;;;5045285;28;20065;-46
2023/04/26 09:12:56;;;;;;;6.35;1.73;;;10.20;95.10;;;;;;5044528;28;20135;-48
2023/04/26 09:15:23;;;;;;;4.45;1.63;;;10.20;93.90;;;;;;5051235;28;20057;-51
2023/04/26 09:17:50;;;;;;;10.05;2.20;;;10.20;94.80;;;;;;5050973;28;20029;-45
2023/04/26 09:20:29;;;;;;;7.28;1.90;;;10.20;94.20;;;;;;5049787;28;20051;-45
2023/04/26 09:23:06;;;;;;;8.35;2.25;;;10.00;93.90;;;;;;5051068;28;20139;-48
2023/04/26 09:25:33;;;;;;;4.65;1.90;;;10.30;94.90;;;;;;5049925;28;20052;-52
2023/04/26 09:27:59;;;;;;;5.72;1.88;;;10.50;94.90;;;;;;5059462;28;20056;-48
2023/04/26 09:30:26;;;;;;;4.32;1.80;;;10.40;93.50;;;;;;5068983;28;20096;-48
2023/04/26 09:33:03;;;;;;;4.80;1.90;;;10.40;93.40;;;;;;5070392;28;20491;-46
2023/04/26 09:35:40;;;;;;;4.85;1.65;;;10.40;92.00;;;;;;5070814;28;20096;-51
2023/04/26 09:38:14;;;;;;;4.85;1.58;;;10.30;92.00;;;;;;5070977;28;20052;-54
2023/04/26 09:40:47;;;;;;;4.70;1.85;;;10.10;92.00;;;;;;5070745;28;20130;-54
2023/04/26 09:43:15;;;;;;;8.32;1.90;;;10.20;92.20;;;;;;5052895;28;20353;-52
2023/04/26 09:45:55;;;;;;;3.85;1.63;;;10.20;91.80;;;;;;5070753;28;20430;-50
2023/04/26 09:48:27;;;;;;;5.05;1.77;;;10.30;91.70;;;;;;5070739;28;20016;-46
2023/04/26 09:51:08;;;;;;;7.13;1.83;;;10.60;91.00;;;;;;5070531;28;20074;-50
2023/04/26 09:53:41;;;;;;;5.40;1.90;;;10.60;90.60;;;;;;5070739;28;20021;-53
2023/04/26 09:56:07;;;;;;;5.90;2.13;;;10.80;91.40;;;;;;5069457;28;20479;-52
2023/04/26 09:58:33;;;;;;;4.60;1.90;;;10.80;89.70;;;;;;5057236;28;20040;-48
2023/04/26 10:00:59;;;;;;;4.95;2.10;;;10.60;87.40;;;;;;5055154;28;20104;-45
2023/04/26 10:03:25;;;;;;;10.43;2.60;;;10.40;88.60;;;;;;5050434;28;20758;-47
2023/04/26 10:05:52;;;;;;;5.68;2.40;;;10.50;90.70;;;;;;5050495;28;20025;-51
2023/04/26 10:08:18;;;;;;;5.13;2.05;;;10.70;90.40;;;;;;5047693;28;20036;-52
2023/04/26 10:10:44;;;;;;;6.53;2.03;;;10.60;88.00;;;;;;5050082;28;20025;-49
2023/04/26 10:13:11;;;;;;;7.93;2.60;;;10.60;87.50;;;;;;5049834;28;20072;-44
2023/04/26 10:15:38;;;;;;;5.85;1.73;;;10.60;87.70;;;;;;5050388;28;20021;-51
2023/04/26 10:18:04;;;;;;;6.38;2.05;;;10.70;87.90;;;;;;5050118;28;20542;-56
2023/04/26 10:20:30;;;;;;;4.55;2.00;;;10.90;87.70;;;;;;5050157;28;20092;-48
2023/04/26 10:23:01;;;;;;;9.23;2.05;;;11.10;87.30;;;;;;5015973;28;20025;-53
2023/04/26 10:25:38;;;;;;;5.80;2.10;;;11.10;83.40;;;;;;5049772;28;20029;-50
2023/04/26 10:28:05;;;;;;;7.38;2.17;;;10.90;81.00;;;;;;5060569;28;20053;-43
2023/04/26 10:30:31;;;;;;;5.82;2.00;;;11.00;81.80;;;;;;5055705;28;20506;-46
2023/04/26 10:33:10;;;;;;;6.15;2.53;;;11.10;84.10;;;;;;5048514;28;20033;-45
2023/04/26 10:35:37;;;;;;;8.45;2.55;;;11.40;82.70;;;;;;5049958;28;20013;-42
2023/04/26 10:38:05;;;;;;;4.82;2.15;;;11.90;83.40;;;;;;5032034;28;20120;-51
2023/04/26 10:40:33;;;;;;;7.05;2.53;;;12.20;82.20;;;;;;5049794;28;20086;-44
2023/04/26 10:43:08;;;;;;;5.10;2.10;;;12.20;80.30;;;;;;5049516;28;20032;-44
2023/04/26 10:45:34;;;;;;;7.13;1.92;;;12.70;80.20;;;;;;5040134;28;20612;-48
2023/04/26 10:48:28;;;;;;;4.70;2.10;;;12.60;79.70;;;;;;5035399;28;20024;-46
2023/04/26 10:51:00;;;;;;;7.28;2.88;;;12.60;77.10;;;;;;5049127;28;20029;-43
2023/04/26 10:53:30;;;;;;;6.20;2.20;;;12.70;77.90;;;;;;5053288;28;20021;-42
2023/04/26 10:55:56;;;;;;;4.70;2.20;;;12.80;76.50;;;;;;5037358;28;20025;-49
2023/04/26 10:58:27;;;;;;;6.95;2.13;;;12.90;77.80;;;;;;5051696;28;20143;-49
2023/04/26 11:01:17;;;;;;;10.10;2.45;;;13.00;77.50;;;;;;5053417;28;20048;-50
2023/04/26 11:04:03;;;;;;;;;;;13.50;72.50;;;;;;5046093;28;20021;-44
2023/04/26 11:06:51;;;;;;;5.80;2.28;;;13.60;74.10;;;;;;5052855;28;19909;-45
2023/04/26 11:09:35;;;;;;;11.93;2.50;;;14.40;73.40;;;;;;5053254;28;20444;-48
2023/04/26 11:12:03;;;;;;;5.70;2.42;;;14.90;71.60;;;;;;5053330;28;20081;-53
2023/04/26 11:14:29;;;;;;;5.63;2.35;;;14.70;70.50;;;;;;5053335;28;20021;-43
2023/04/26 11:16:55;;;;;;;9.20;2.53;;;15.20;70.90;;;;;;5053233;28;20025;-46
2023/04/26 11:19:21;;;;;;;7.00;2.35;;;15.40;70.70;;;;;;5053362;28;20074;-43
2023/04/26 11:21:47;;;;;;;6.55;2.67;;;15.40;69.50;;;;;;5052809;28;20429;-50
2023/04/26 11:24:16;;;;;;;6.90;2.70;;;16.00;67.80;;;;;;5052816;28;20036;-43
2023/04/26 11:26:50;;;;;;;6.38;2.70;;;16.30;68.50;;;;;;5051441;28;20100;-50
2023/04/26 11:29:20;;;;;;;11.65;3.15;;;15.00;65.00;;;;;;5050518;28;20491;-43
2023/04/26 11:31:55;;;;;;;6.63;2.45;;;14.80;66.90;;;;;;5045818;28;20037;-42
2023/04/26 11:34:30;;;;;;;5.40;2.40;;;14.80;67.30;;;;;;5073002;28;20028;-48
2023/04/26 11:36:56;;;;;;;8.35;2.80;;;15.00;67.50;;;;;;5072853;28;20021;-52
2023/04/26 11:39:21;;;;;;;8.02;2.95;;;14.80;66.70;;;;;;5054895;28;20501;-46
2023/04/26 11:41:48;;;;;;;5.90;2.22;;;15.10;67.40;;;;;;5058694;28;20031;-48
2023/04/26 11:44:18;;;;;;;6.60;2.72;;;15.80;68.80;;;;;;5054828;28;20025;-52
2023/04/26 11:46:46;;;;;;;6.35;2.70;;;15.80;65.30;;;;;;5072633;28;20545;-47
2023/04/26 11:49:12;;;;;;;8.15;2.60;;;16.00;63.50;;;;;;5056652;28;20036;-49
2023/04/26 11:51:38;;;;;;;6.68;2.63;;;16.10;64.90;;;;;;5052650;28;20037;-51
2023/04/26 11:54:04;;;;;;;7.18;2.28;;;15.80;65.00;;;;;;5052467;28;20017;-51
2023/04/26 11:56:29;;;;;;;7.05;2.63;;;16.20;64.90;;;;;;5051967;28;20525;-48
2023/04/26 11:58:57;;;;;;;5.82;2.72;;;16.70;66.20;;;;;;5048039;28;20028;-46
2023/04/26 12:01:27;;;;;;;7.65;3.13;;;16.10;62.10;;;;;;5043925;28;20505;-51
2023/04/26 12:03:54;;;;;;;12.07;3.15;;;16.20;64.00;;;;;;5051111;28;20025;-54
2023/04/26 12:06:25;;;;;;;10.05;2.92;;;16.30;64.30;;;;;;5052334;28;20029;-47
2023/04/26 12:08:51;;;;;;;8.95;2.83;;;16.40;62.70;;;;;;5052435;28;20544;-51
2023/04/26 12:11:17;;;;;;;7.22;2.97;;;16.30;63.50;;;;;;5052173;28;20029;-44
2023/04/26 12:13:45;;;;;;;8.30;2.65;;;17.10;62.70;;;;;;5051540;28;20076;-47
2023/04/26 12:16:12;;;;;;;8.98;2.83;;;17.70;61.20;;;;;;5052264;28;20029;-45
2023/04/26 12:18:37;;;;;;;12.43;3.53;;;17.30;60.20;;;;;;5054740;28;20032;-54
2023/04/26 12:21:03;;;;;;;7.60;3.50;;;18.10;60.00;;;;;;5072186;28;20028;-52
2023/04/26 12:23:38;;;;;;;8.40;2.85;;;17.90;57.50;;;;;;5071992;28;20107;-46
2023/04/26 12:26:03;;;;;;;8.07;2.65;;;18.60;62.90;;;;;;5065950;28;20492;-51
2023/04/26 12:28:29;;;;;;;7.22;2.78;;;19.90;62.90;;;;;;5045114;28;20033;-46
2023/04/26 12:30:55;;;;;;;9.55;2.70;;;21.40;58.90;;;;;;5051511;28;20013;-51
2023/04/26 12:33:21;;;;;;;12.80;3.25;;;21.10;50.10;;;;;;5051936;28;20033;-54
2023/04/26 12:35:48;;;;;;;6.22;3.17;;;20.30;52.10;;;;;;5051698;28;20040;-54
2023/04/26 12:38:14;;;;;;;7.82;2.85;;;19.00;51.80;;;;;;5051933;28;20028;-57
2023/04/26 12:40:41;;;;;;;10.70;3.25;;;18.10;55.40;;;;;;5033863;28;20017;-42
2023/04/26 12:43:07;;;;;;;7.45;3.15;;;17.20;57.10;;;;;;5044250;28;20079;-47
2023/04/26 12:45:33;;;;;;;8.18;2.85;;;17.60;60.40;;;;;;5051261;28;20021;-47
2023/04/26 12:47:58;;;;;;;5.57;2.50;;;18.30;57.90;;;;;;5051487;28;20476;-51
2023/04/26 12:50:24;;;;;;;4.80;2.40;;;19.00;56.10;;;;;;5049932;28;20384;-47
2023/04/26 12:52:50;;;;;;;5.43;2.75;;;18.80;57.10;;;;;;5047494;28;20040;-46